BBS weather

Blackbushe Airport
Yateley, England, United Kingdom

Public forecast

Using degrees Celsius for public forecast. Weather courtesy of forecast.io.

Closest aviation weather report (METAR) to Blackbushe Airport

Closest report is Farnborough Airport, 3.9 nm (7.3 km) SE. Retrieved 2019/10/19 13:20 UTC (2 minutes ago):

EGLF 191320Z AUTO 24013KT 210V280 9999 FEW038/// 15/08 Q1000

Closest aviation forecast (TAF) to Blackbushe Airport

Forecast is more than 12 hours old.

Closest forecast is Farnborough Airport, 3.9 nm (7.3 km) SE. Retrieved 2016/04/18 18:00 UTC (4 years ago):

TAF EGLF 181658Z 1818/1821 26008KT 9999 BKN040